Time;durP1;ratioP1;P1;durP2;ratioP2;P2;SDS_P1;SDS_P2;PMS_P1;PMS_P2;Temp;Humidity;BMP_temperature;BMP_pressure;BME280_temperature;BME280_humidity;BME280_pressure;Samples;Min_cycle;Max_cycle;Signal;HPM_P1;HPM_P2
2022/04/26 03:36:59;;;;;;;2.58;2.38;;;16.70;54.10;;;;;;5112268;28;20176;-67
2022/04/26 03:39:25;;;;;;;2.55;2.35;;;16.70;54.10;;;;;;5111694;28;20498;-67
2022/04/26 03:41:51;;;;;;;2.50;2.40;;;16.60;54.00;;;;;;5112230;28;20169;-67
2022/04/26 03:44:16;;;;;;;2.63;2.30;;;16.70;54.10;;;;;;5112336;28;20173;-67
2022/04/26 03:46:42;;;;;;;2.28;2.17;;;16.70;54.10;;;;;;5111267;28;20165;-67
2022/04/26 03:49:07;;;;;;;2.35;2.15;;;16.60;54.00;;;;;;5112506;28;20620;-67
2022/04/26 03:51:33;;;;;;;3.28;2.20;;;16.60;54.00;;;;;;5112435;28;20173;-66
2022/04/26 03:53:58;;;;;;;2.40;2.20;;;16.60;54.00;;;;;;5111330;28;20196;-67
2022/04/26 03:56:24;;;;;;;3.00;2.70;;;16.60;54.00;;;;;;5112424;28;20192;-68
2022/04/26 03:58:49;;;;;;;2.05;1.95;;;16.60;54.10;;;;;;5111395;28;20224;-68
2022/04/26 04:01:15;;;;;;;2.45;2.25;;;16.60;54.10;;;;;;5111759;28;20176;-69
2022/04/26 04:03:41;;;;;;;2.38;2.28;;;16.60;54.10;;;;;;5112018;28;20497;-68
2022/04/26 04:06:06;;;;;;;2.45;2.25;;;16.60;54.10;;;;;;5111736;28;20305;-67
2022/04/26 04:08:34;;;;;;;2.10;2.00;;;16.60;54.10;;;;;;5112038;28;20256;-67
2022/04/26 04:11:00;;;;;;;2.22;2.13;;;16.60;54.10;;;;;;5112271;28;20176;-66
2022/04/26 04:13:25;;;;;;;2.55;2.35;;;16.60;54.10;;;;;;5111419;28;20177;-67
2022/04/26 04:15:51;;;;;;;2.20;2.10;;;16.60;54.10;;;;;;5111524;28;20557;-67
2022/04/26 04:21:00;;;;;;;2.45;2.25;;;16.60;54.10;;;;;;5115424;28;20252;-68
2022/04/26 04:23:26;;;;;;;2.25;2.05;;;16.60;54.00;;;;;;5116075;28;20264;-67
2022/04/26 04:25:52;;;;;;;2.47;2.08;;;16.60;54.10;;;;;;5115649;28;20620;-67
2022/04/26 04:28:17;;;;;;;2.05;1.90;;;16.60;54.10;;;;;;5115199;28;20668;-67
2022/04/26 04:30:43;;;;;;;3.08;2.53;;;16.50;54.10;;;;;;5115799;28;20181;-67
2022/04/26 04:33:08;;;;;;;2.42;2.20;;;16.60;54.10;;;;;;5115932;28;20196;-68
2022/04/26 04:35:34;;;;;;;2.72;2.20;;;16.60;54.10;;;;;;5115263;28;20173;-68
2022/04/26 04:38:00;;;;;;;2.47;2.25;;;16.60;54.20;;;;;;5115362;28;20574;-68
2022/04/26 04:40:25;;;;;;;2.60;2.40;;;16.50;54.10;;;;;;5115624;28;20185;-68
2022/04/26 04:42:51;;;;;;;2.33;2.10;;;16.50;54.50;;;;;;5114479;28;20192;-69
2022/04/26 04:45:16;;;;;;;2.58;2.22;;;16.60;54.10;;;;;;5115489;28;20173;-69
2022/04/26 04:47:41;;;;;;;2.00;1.90;;;16.60;54.10;;;;;;5115084;28;20698;-68
2022/04/26 04:50:07;;;;;;;2.75;2.53;;;16.60;54.20;;;;;;5115027;28;20326;-68
2022/04/26 04:52:33;;;;;;;2.10;2.00;;;16.50;54.10;;;;;;5115580;28;20173;-68
2022/04/26 04:54:58;;;;;;;2.40;2.30;;;16.50;54.10;;;;;;5115328;28;20177;-68
2022/04/26 04:57:25;;;;;;;2.60;2.40;;;16.50;54.00;;;;;;5114424;28;20225;-69
2022/04/26 04:59:50;;;;;;;2.70;2.20;;;16.50;54.00;;;;;;5115360;28;20169;-69
2022/04/26 05:02:16;;;;;;;2.30;2.20;;;16.60;54.10;;;;;;5114676;28;20238;-69
2022/04/26 05:04:42;;;;;;;2.08;1.98;;;16.50;54.10;;;;;;5114977;28;20542;-68
2022/04/26 05:07:08;;;;;;;2.42;2.22;;;16.50;54.10;;;;;;5115281;28;20261;-68
2022/04/26 05:09:34;;;;;;;2.53;2.33;;;16.60;54.10;;;;;;5114302;28;20596;-68
2022/04/26 05:11:59;;;;;;;3.65;3.00;;;16.50;54.10;;;;;;5114988;28;20281;-66
2022/04/26 05:14:25;;;;;;;2.30;2.10;;;16.60;54.20;;;;;;5115248;28;20185;-68
2022/04/26 05:16:50;;;;;;;2.50;2.30;;;16.50;54.10;;;;;;5113793;28;20173;-67
2022/04/26 05:19:16;;;;;;;2.65;2.25;;;16.50;54.10;;;;;;5115008;28;20265;-68
2022/04/26 05:21:41;;;;;;;2.30;2.20;;;16.60;54.10;;;;;;5114637;28;20200;-67
2022/04/26 05:26:54;;;;;;;2.60;2.40;;;16.60;54.10;;;;;;5114487;28;20161;-66
2022/04/26 05:29:19;;;;;;;2.30;2.10;;;16.60;54.10;;;;;;5114764;28;20165;-67
2022/04/26 05:31:45;;;;;;;2.30;2.10;;;16.60;54.00;;;;;;5113272;28;20188;-67
2022/04/26 05:34:10;;;;;;;2.45;2.25;;;16.60;54.00;;;;;;5114737;28;20607;-67
2022/04/26 05:36:36;;;;;;;2.70;2.50;;;16.60;54.00;;;;;;5114594;28;20657;-68
2022/04/26 05:39:01;;;;;;;2.65;2.45;;;16.60;54.00;;;;;;5113675;28;20205;-68
2022/04/26 05:41:27;;;;;;;2.65;2.45;;;16.60;54.00;;;;;;5114876;28;20620;-68
2022/04/26 05:43:53;;;;;;;2.10;2.00;;;16.60;54.00;;;;;;5114571;28;20263;-67
2022/04/26 05:46:18;;;;;;;4.10;2.85;;;16.60;53.90;;;;;;5113605;28;20170;-71
2022/04/26 05:48:43;;;;;;;3.50;2.65;;;16.60;54.00;;;;;;5114188;28;20180;-71
2022/04/26 05:51:09;;;;;;;4.10;2.83;;;16.70;53.90;;;;;;5114306;28;20177;-69
2022/04/26 05:53:37;;;;;;;2.72;2.53;;;16.70;53.80;;;;;;5113130;28;20176;-70
2022/04/26 05:56:05;;;;;;;5.03;2.97;;;16.70;53.70;;;;;;5114029;28;20620;-69
2022/04/26 05:58:31;;;;;;;4.95;2.92;;;16.80;53.80;;;;;;5112962;28;20228;-72
2022/04/26 06:00:56;;;;;;;7.40;2.65;;;16.80;54.10;;;;;;5113729;28;20218;-71
2022/04/26 06:03:22;;;;;;;6.45;2.55;;;16.80;54.10;;;;;;5114159;28;20241;-73
2022/04/26 06:05:47;;;;;;;3.92;2.92;;;16.80;54.20;;;;;;5113341;28;20963;-70
2022/04/26 06:08:13;;;;;;;4.75;2.50;;;16.80;54.40;;;;;;5114113;28;20613;-68
2022/04/26 06:10:39;;;;;;;4.63;2.95;;;16.70;54.40;;;;;;5113940;28;20173;-68
2022/04/26 06:13:05;;;;;;;3.63;2.60;;;16.70;54.40;;;;;;5113561;28;20208;-69
2022/04/26 06:15:30;;;;;;;3.65;2.70;;;16.70;54.20;;;;;;5113975;28;20291;-69
2022/04/26 06:17:56;;;;;;;3.08;2.78;;;16.70;54.40;;;;;;5113504;28;20269;-70
2022/04/26 06:20:23;;;;;;;3.30;3.00;;;16.70;54.50;;;;;;5113217;28;20535;-70
2022/04/26 06:22:49;;;;;;;4.75;3.05;;;16.70;54.40;;;;;;5113595;28;20213;-68
2022/04/26 06:25:14;;;;;;;5.88;3.10;;;16.70;54.30;;;;;;5113695;28;20243;-66
2022/04/26 06:27:40;;;;;;;3.63;2.92;;;16.70;54.20;;;;;;5112829;28;20180;-68
2022/04/26 06:30:06;;;;;;;4.30;2.97;;;16.70;54.20;;;;;;5114030;28;20177;-68
2022/04/26 06:32:31;;;;;;;5.18;3.28;;;16.80;54.30;;;;;;5114139;28;20176;-68
2022/04/26 06:34:57;;;;;;;5.00;3.17;;;16.80;54.00;;;;;;5112998;28;20248;-69
2022/04/26 06:37:23;;;;;;;4.55;3.20;;;16.80;54.20;;;;;;5113403;28;20213;-70
2022/04/26 06:39:53;;;;;;;3.92;2.42;;;16.90;54.20;;;;;;5113296;28;20551;-70
2022/04/26 06:42:19;;;;;;;5.30;2.97;;;17.00;54.20;;;;;;5112134;28;20175;-69
2022/04/26 06:44:44;;;;;;;4.15;2.72;;;17.10;54.10;;;;;;5113462;28;20252;-68
2022/04/26 06:47:10;;;;;;;3.13;2.60;;;17.30;54.10;;;;;;5113362;28;20648;-72
2022/04/26 06:49:35;;;;;;;3.50;2.55;;;17.40;54.00;;;;;;5112499;28;20242;-69
2022/04/26 06:52:01;;;;;;;3.30;2.70;;;17.50;53.80;;;;;;5113240;28;20177;-69
2022/04/26 06:54:26;;;;;;;5.85;2.42;;;17.60;53.50;;;;;;5113494;28;20181;-69
2022/04/26 06:56:52;;;;;;;5.45;2.63;;;17.80;53.30;;;;;;5111940;28;20226;-70
2022/04/26 06:59:18;;;;;;;4.32;2.47;;;17.90;53.20;;;;;;5113162;28;20295;-73
2022/04/26 07:01:44;;;;;;;5.32;2.92;;;18.00;53.10;;;;;;5112240;28;20173;-72
2022/04/26 07:04:09;;;;;;;3.38;2.88;;;18.20;52.70;;;;;;5113236;28;20727;-72
2022/04/26 07:06:35;;;;;;;2.42;2.25;;;18.40;52.50;;;;;;5112622;28;20521;-71
2022/04/26 07:09:03;;;;;;;7.93;3.35;;;18.40;52.30;;;;;;5112354;28;20189;-69
2022/04/26 07:11:28;;;;;;;4.00;2.83;;;18.40;52.30;;;;;;5112983;28;20169;-69
2022/04/26 07:13:57;;;;;;;3.55;2.58;;;18.40;52.40;;;;;;5112653;28;20188;-70
2022/04/26 07:16:22;;;;;;;5.53;3.03;;;18.30;52.50;;;;;;5112187;28;20203;-70
2022/04/26 07:18:48;;;;;;;5.40;3.38;;;18.30;52.50;;;;;;5112273;28;20224;-70
2022/04/26 07:21:17;;;;;;;4.70;2.67;;;18.20;52.60;;;;;;5112681;28;20173;-70
2022/04/26 07:23:42;;;;;;;3.35;2.60;;;18.20;52.80;;;;;;5111600;28;20585;-71
2022/04/26 07:26:08;;;;;;;4.80;2.60;;;18.10;52.70;;;;;;5112564;28;20173;-70
2022/04/26 07:28:33;;;;;;;4.32;2.75;;;18.10;53.10;;;;;;5112643;28;20183;-70
2022/04/26 07:30:59;;;;;;;2.78;2.58;;;18.00;53.20;;;;;;5111653;28;20165;-71
2022/04/26 07:36:10;;;;;;;5.53;2.60;;;17.90;53.40;;;;;;5112715;28;20646;-70
2022/04/26 07:38:36;;;;;;;4.00;2.50;;;17.90;53.60;;;;;;5111739;28;20213;-71
2022/04/26 07:41:01;;;;;;;4.30;2.72;;;17.80;53.50;;;;;;5112663;28;20175;-72
2022/04/26 07:43:27;;;;;;;2.50;2.28;;;17.80;53.50;;;;;;5112660;28;20177;-72
2022/04/26 07:45:52;;;;;;;3.45;2.65;;;17.70;53.70;;;;;;5111536;28;20176;-70
2022/04/26 07:48:22;;;;;;;3.08;2.60;;;17.70;53.70;;;;;;5111067;28;20511;-70
2022/04/26 07:50:48;;;;;;;3.20;2.65;;;17.60;53.70;;;;;;5112351;28;20242;-70
2022/04/26 07:53:13;;;;;;;3.95;2.80;;;17.60;53.90;;;;;;5111593;28;20264;-71
2022/04/26 07:55:39;;;;;;;4.50;2.70;;;17.70;53.90;;;;;;5110911;28;20655;-71
2022/04/26 07:58:05;;;;;;;4.22;2.60;;;17.70;53.90;;;;;;5110000;28;20240;-72
2022/04/26 08:00:30;;;;;;;2.72;2.53;;;17.70;53.80;;;;;;5112454;28;20183;-73
2022/04/26 08:02:56;;;;;;;2.95;2.47;;;17.80;53.80;;;;;;5112036;28;20176;-73
2022/04/26 08:05:22;;;;;;;2.85;2.60;;;17.70;53.80;;;;;;5111431;28;20595;-71
2022/04/26 08:07:48;;;;;;;5.28;2.63;;;17.80;53.80;;;;;;5112199;28;20257;-71
2022/04/26 08:10:14;;;;;;;3.35;2.50;;;17.70;53.80;;;;;;5112397;28;20512;-70
2022/04/26 08:12:40;;;;;;;3.35;2.55;;;17.70;53.80;;;;;;5111153;28;20679;-70
2022/04/26 08:15:06;;;;;;;3.90;2.60;;;17.70;53.80;;;;;;5112160;28;20177;-70
2022/04/26 08:17:32;;;;;;;2.97;2.70;;;17.80;53.90;;;;;;5111963;28;20205;-71
2022/04/26 08:19:57;;;;;;;3.15;2.35;;;17.80;53.90;;;;;;5111352;28;20650;-72
2022/04/26 08:22:23;;;;;;;2.92;2.60;;;17.80;53.80;;;;;;5112258;28;20624;-70
2022/04/26 08:27:33;;;;;;;3.55;2.40;;;17.80;53.80;;;;;;5111387;28;20642;-70
2022/04/26 08:29:59;;;;;;;3.90;2.58;;;17.80;53.70;;;;;;5110561;28;20175;-70
2022/04/26 08:32:26;;;;;;;2.65;2.45;;;17.80;53.80;;;;;;5111957;28;20664;-71
2022/04/26 08:34:53;;;;;;;3.33;2.85;;;17.80;53.80;;;;;;5111327;28;20177;-72
2022/04/26 08:37:18;;;;;;;2.78;2.58;;;17.80;53.80;;;;;;5112069;28;20242;-72
2022/04/26 08:39:44;;;;;;;3.20;2.70;;;17.80;53.80;;;;;;5111677;28;20181;-72
2022/04/26 08:42:09;;;;;;;3.70;2.53;;;17.80;53.80;;;;;;5111411;28;20180;-72
2022/04/26 08:44:35;;;;;;;4.90;3.20;;;17.70;53.70;;;;;;5111538;28;20563;-70
2022/04/26 08:52:46;;;;;;;2.97;2.65;;;17.60;53.10;;;;;;5111938;28;20534;-70
2022/04/26 08:55:12;;;;;;;4.93;2.95;;;17.60;53.20;;;;;;5110988;28;20237;-70
2022/04/26 08:57:37;;;;;;;4.60;2.90;;;17.70;53.10;;;;;;5111130;28;20225;-72
2022/04/26 09:00:05;;;;;;;3.63;2.80;;;17.70;53.00;;;;;;5111795;28;20600;-72
2022/04/26 09:02:30;;;;;;;5.07;2.92;;;17.80;53.10;;;;;;5111204;28;20253;-72
2022/04/26 09:05:00;;;;;;;3.22;2.50;;;17.80;53.30;;;;;;5111809;28;20543;-68
2022/04/26 09:07:30;;;;;;;5.75;2.78;;;17.80;53.30;;;;;;5115492;28;20177;-67
2022/04/26 09:10:10;;;;;;;5.63;2.85;;;17.90;53.20;;;;;;5114500;28;20173;-67
2022/04/26 09:13:01;;;;;;;5.10;2.53;;;17.90;53.20;;;;;;5115190;28;20242;-67
2022/04/26 09:15:44;;;;;;;3.33;2.63;;;17.80;53.30;;;;;;5114522;27;20260;-69
2022/04/26 09:18:14;;;;;;;3.00;2.50;;;17.90;53.40;;;;;;5114927;28;20674;-66
2022/04/26 09:20:39;;;;;;;4.57;2.88;;;18.00;53.30;;;;;;5115092;28;20177;-72
2022/04/26 09:23:14;;;;;;;3.83;2.40;;;18.00;53.40;;;;;;5114442;28;20172;-73
2022/04/26 09:25:40;;;;;;;4.70;2.30;;;18.00;53.30;;;;;;5114770;28;20619;-73
2022/04/26 09:28:06;;;;;;;2.90;2.55;;;18.10;53.50;;;;;;5114828;28;20189;-73
2022/04/26 09:30:31;;;;;;;4.45;2.35;;;18.10;53.50;;;;;;5114124;28;20177;-70
2022/04/26 09:32:58;;;;;;;4.43;2.20;;;18.10;53.50;;;;;;5114418;28;20180;-70
2022/04/26 09:35:32;;;;;;;2.83;2.20;;;18.10;53.50;;;;;;5114899;28;20173;-71
2022/04/26 09:37:59;;;;;;;4.75;2.50;;;18.00;53.40;;;;;;5113648;28;20234;-70
2022/04/26 09:40:28;;;;;;;2.95;2.40;;;18.00;53.60;;;;;;5114933;28;20252;-70
2022/04/26 09:42:54;;;;;;;3.63;2.22;;;18.00;53.60;;;;;;5114474;28;20173;-71
2022/04/26 09:45:20;;;;;;;7.57;2.20;;;18.00;53.70;;;;;;5112976;28;20173;-71
2022/04/26 09:47:46;;;;;;;3.35;2.38;;;18.00;53.70;;;;;;5114490;28;20198;-71
2022/04/26 09:50:12;;;;;;;3.70;2.28;;;18.00;53.80;;;;;;5114718;28;20180;-71
2022/04/26 09:52:39;;;;;;;2.92;2.28;;;18.00;53.80;;;;;;5113686;28;20180;-72
2022/04/26 09:55:05;;;;;;;3.63;2.30;;;18.10;53.70;;;;;;5114554;28;20200;-72
2022/04/26 09:57:35;;;;;;;5.50;2.38;;;18.10;53.50;;;;;;5113966;28;20679;-72
2022/04/26 10:00:05;;;;;;;5.03;2.67;;;18.20;53.40;;;;;;5114487;28;20202;-70
2022/04/26 10:02:34;;;;;;;2.80;2.50;;;18.20;53.30;;;;;;5114193;28;20654;-71
2022/04/26 10:05:03;;;;;;;5.07;2.22;;;18.30;53.30;;;;;;5113080;28;20582;-70
2022/04/26 10:07:30;;;;;;;5.45;2.60;;;18.30;53.20;;;;;;5114296;28;20177;-71
2022/04/26 10:09:55;;;;;;;4.13;2.50;;;18.30;53.30;;;;;;5112564;28;20359;-72
2022/04/26 10:12:21;;;;;;;2.42;2.22;;;18.30;53.20;;;;;;5095126;28;20312;-73
2022/04/26 10:14:46;;;;;;;4.00;2.35;;;18.40;53.20;;;;;;5095586;28;20187;-73
2022/04/26 10:17:14;;;;;;;4.13;1.95;;;18.40;53.20;;;;;;5095500;28;20173;-73
2022/04/26 10:19:46;;;;;;;3.13;2.30;;;18.40;53.10;;;;;;5111766;28;20423;-73
2022/04/26 10:22:15;;;;;;;2.13;1.88;;;18.40;53.60;;;;;;5113821;28;20184;-72
2022/04/26 10:24:40;;;;;;;2.78;2.58;;;18.40;53.20;;;;;;5113556;28;20181;-74
2022/04/26 10:27:25;;;;;;;2.72;2.53;;;18.40;53.10;;;;;;5111994;28;20643;-73
2022/04/26 10:29:51;;;;;;;2.10;1.90;;;18.40;53.00;;;;;;5113188;28;20643;-70
2022/04/26 10:32:32;;;;;;;4.13;2.65;;;18.40;53.10;;;;;;5113878;28;20181;-72
2022/04/26 10:35:24;;;;;;;3.17;2.25;;;18.30;53.20;;;;;;5112702;28;20255;-72
2022/04/26 10:38:12;;;;;;;4.35;2.30;;;18.30;53.40;;;;;;5105036;28;20205;-72
2022/04/26 10:41:15;;;;;;;6.55;2.80;;;18.40;53.30;;;;;;5112675;28;20640;-69
2022/04/26 10:43:42;;;;;;;8.82;2.88;;;18.40;53.20;;;;;;5050869;28;20179;-68
2022/04/26 10:46:08;;;;;;;3.80;2.35;;;18.40;53.50;;;;;;5096587;28;20628;-69
2022/04/26 10:48:33;;;;;;;3.33;2.33;;;18.30;53.60;;;;;;5112646;28;20177;-68
2022/04/26 10:51:32;;;;;;;4.22;2.53;;;18.40;53.60;;;;;;5113137;28;20165;-70
2022/04/26 10:53:58;;;;;;;4.80;2.40;;;18.40;53.80;;;;;;5110877;28;20380;-71
2022/04/26 10:56:23;;;;;;;5.80;2.30;;;18.40;53.60;;;;;;5113416;28;20627;-73
2022/04/26 10:58:52;;;;;;;6.00;2.80;;;18.50;53.30;;;;;;5112636;28;20240;-68
2022/04/26 11:01:18;;;;;;;4.50;2.33;;;18.50;52.60;;;;;;5112580;28;20207;-74
2022/04/26 11:03:55;;;;;;;5.25;2.30;;;18.60;52.40;;;;;;5112988;28;20208;-72
2022/04/26 11:06:40;;;;;;;6.65;2.90;;;18.60;52.40;;;;;;5112887;28;20180;-73
2022/04/26 11:09:14;;;;;;;4.15;2.30;;;18.60;52.60;;;;;;5112181;28;20539;-72
2022/04/26 11:11:49;;;;;;;4.60;2.20;;;18.50;52.70;;;;;;5112627;28;20174;-72
2022/04/26 11:14:17;;;;;;;6.53;2.72;;;18.60;52.70;;;;;;5112860;28;20539;-71
2022/04/26 11:17:05;;;;;;;2.30;1.90;;;18.60;52.70;;;;;;5111541;28;20177;-70
2022/04/26 11:19:31;;;;;;;5.25;2.38;;;18.60;52.90;;;;;;5112786;28;20297;-71
2022/04/26 11:22:06;;;;;;;2.63;1.65;;;18.50;53.50;;;;;;5112079;28;20173;-70
2022/04/26 11:30:00;;;;;;;2.97;2.10;;;18.60;52.90;;;;;;5111942;28;20179;-73
2022/04/26 11:32:42;;;;;;;5.38;2.25;;;18.70;52.70;;;;;;5112744;28;20531;-74
2022/04/26 11:35:08;;;;;;;3.38;2.45;;;18.60;52.50;;;;;;5112712;28;20234;-75
2022/04/26 11:37:46;;;;;;;3.90;2.35;;;18.60;51.60;;;;;;5111597;28;20172;-74
2022/04/26 11:40:12;;;;;;;4.85;2.45;;;18.70;50.80;;;;;;5112337;28;20177;-74
2022/04/26 11:42:37;;;;;;;4.97;2.53;;;18.60;50.40;;;;;;5110600;28;20172;-74
2022/04/26 11:45:04;;;;;;;6.25;3.05;;;18.60;49.60;;;;;;5110476;28;20169;-73
2022/04/26 11:47:56;;;;;;;8.15;2.97;;;18.70;49.20;;;;;;5112319;28;20189;-74
2022/04/26 11:50:28;;;;;;;5.07;2.97;;;18.70;48.90;;;;;;5109465;28;20204;-73
2022/04/26 11:53:08;;;;;;;5.63;2.95;;;18.70;49.00;;;;;;5112653;28;20181;-70
2022/04/26 11:55:46;;;;;;;6.80;3.00;;;18.70;49.30;;;;;;5112251;28;20200;-70
2022/04/26 11:58:16;;;;;;;12.00;3.25;;;18.70;48.40;;;;;;5111232;28;20311;-71
2022/04/26 12:01:16;;;;;;;6.20;3.10;;;18.60;48.70;;;;;;5111941;28;20192;-72
2022/04/26 12:03:52;;;;;;;8.52;2.85;;;18.60;48.90;;;;;;5111868;28;20172;-71
2022/04/26 12:06:28;;;;;;;5.65;2.47;;;18.50;49.10;;;;;;5110121;28;20184;-71
2022/04/26 12:08:55;;;;;;;3.75;2.70;;;18.50;49.20;;;;;;5110601;28;20248;-69
2022/04/26 12:11:21;;;;;;;4.75;2.95;;;18.50;49.40;;;;;;5111755;28;20185;-70
2022/04/26 12:14:11;;;;;;;5.18;2.58;;;18.60;49.40;;;;;;5111688;28;20539;-69
2022/04/26 12:16:42;;;;;;;4.53;2.75;;;18.60;49.60;;;;;;5111781;28;20181;-72
2022/04/26 12:19:08;;;;;;;4.38;2.40;;;18.70;49.50;;;;;;5111104;28;20216;-72
2022/04/26 12:21:46;;;;;;;3.92;2.45;;;18.70;49.50;;;;;;5111839;28;20510;-71
2022/04/26 12:24:21;;;;;;;5.43;2.40;;;18.70;49.50;;;;;;5112136;28;20184;-71
2022/04/26 12:26:55;;;;;;;4.05;2.20;;;18.70;49.70;;;;;;5110762;28;20691;-71
2022/04/26 12:29:25;;;;;;;3.97;2.40;;;18.70;49.80;;;;;;5111969;28;20172;-71
2022/04/26 12:31:51;;;;;;;3.15;1.98;;;18.70;49.90;;;;;;5111492;28;20196;-69
2022/04/26 12:34:29;;;;;;;4.35;2.67;;;18.60;49.90;;;;;;5111294;28;20533;-73
2022/04/26 12:36:57;;;;;;;3.13;1.92;;;18.60;50.10;;;;;;5111708;28;20181;-72
2022/04/26 12:39:23;;;;;;;5.25;2.53;;;18.70;50.10;;;;;;5110988;28;20212;-73
2022/04/26 12:41:50;;;;;;;2.45;2.15;;;18.80;49.90;;;;;;5115281;28;20276;-72
2022/04/26 12:44:16;;;;;;;4.82;2.20;;;18.80;50.00;;;;;;5115767;28;20585;-72
2022/04/26 12:50:27;;;;;;;2.53;2.30;;;18.70;50.10;;;;;;5114897;28;20768;-73
2022/04/26 12:52:37;;;;;;;3.72;2.30;;;18.70;50.20;;;;;;5115408;28;20237;-71
2022/04/26 12:55:03;;;;;;;2.53;2.33;;;18.80;50.10;;;;;;5114838;28;20177;-71
2022/04/26 12:57:29;;;;;;;5.13;2.35;;;18.80;50.00;;;;;;5115382;28;20660;-73
2022/04/26 12:59:54;;;;;;;2.28;1.88;;;18.90;49.90;;;;;;5113799;28;20648;-72
2022/04/26 13:02:20;;;;;;;2.60;2.17;;;19.00;49.90;;;;;;5114619;28;20207;-72
2022/04/26 13:04:45;;;;;;;3.83;2.00;;;19.10;49.90;;;;;;5115179;28;20222;-71
2022/04/26 13:07:11;;;;;;;2.65;2.15;;;19.10;49.90;;;;;;5115345;28;20230;-73
2022/04/26 13:09:36;;;;;;;3.60;2.47;;;19.00;49.90;;;;;;5114457;28;20180;-71
2022/04/26 13:12:03;;;;;;;2.58;2.38;;;19.10;49.80;;;;;;5115360;28;20172;-71
2022/04/26 13:14:28;;;;;;;4.15;2.33;;;19.10;49.80;;;;;;5114934;28;20205;-72
2022/04/26 13:16:54;;;;;;;2.00;1.80;;;19.20;49.80;;;;;;5114626;28;20212;-72
2022/04/26 13:19:19;;;;;;;2.13;1.92;;;19.20;49.70;;;;;;5115024;28;20315;-73
2022/04/26 13:21:45;;;;;;;3.47;2.20;;;19.20;49.70;;;;;;5114000;28;20189;-72
2022/04/26 13:24:11;;;;;;;2.67;1.92;;;19.20;49.60;;;;;;5114892;28;20642;-72
2022/04/26 13:26:36;;;;;;;3.35;2.08;;;19.30;49.70;;;;;;5114881;28;20181;-72
2022/04/26 13:29:03;;;;;;;3.08;2.00;;;19.40;49.70;;;;;;5114207;28;20177;-73
2022/04/26 13:31:29;;;;;;;2.63;2.05;;;19.40;49.70;;;;;;5115067;28;20170;-74
2022/04/26 13:33:56;;;;;;;2.90;2.30;;;19.30;49.70;;;;;;5114595;28;20276;-72
2022/04/26 13:36:22;;;;;;;2.78;2.25;;;19.20;49.80;;;;;;5114152;28;20173;-73
2022/04/26 13:38:47;;;;;;;2.25;1.98;;;19.10;49.90;;;;;;5114341;28;20266;-73
2022/04/26 13:41:13;;;;;;;2.75;1.83;;;19.20;49.80;;;;;;5114736;28;20211;-73
2022/04/26 13:43:41;;;;;;;2.45;2.05;;;19.20;49.70;;;;;;5113852;28;20264;-73
2022/04/26 13:46:07;;;;;;;2.40;2.03;;;19.20;49.80;;;;;;5114556;28;20643;-72
2022/04/26 13:48:32;;;;;;;2.85;2.15;;;19.10;50.00;;;;;;5114551;28;20180;-73
2022/04/26 13:50:58;;;;;;;3.05;2.03;;;19.10;49.90;;;;;;5113149;28;20196;-71
2022/04/26 13:53:23;;;;;;;2.20;2.00;;;19.30;49.80;;;;;;5114712;28;20194;-73
2022/04/26 13:55:49;;;;;;;3.00;2.28;;;19.30;49.70;;;;;;5114137;28;20245;-72
2022/04/26 13:58:14;;;;;;;2.95;1.90;;;19.20;49.80;;;;;;5113476;28;20694;-74
2022/04/26 14:00:40;;;;;;;4.45;2.03;;;19.10;49.90;;;;;;5114119;28;20173;-73
2022/04/26 14:03:06;;;;;;;3.67;2.10;;;19.10;49.90;;;;;;5114292;28;20172;-73
2022/04/26 14:05:31;;;;;;;3.50;2.38;;;19.10;50.00;;;;;;5113388;28;20196;-73
2022/04/26 14:07:57;;;;;;;2.40;2.10;;;19.20;49.70;;;;;;5114048;28;20206;-72
2022/04/26 14:10:22;;;;;;;2.20;2.10;;;19.30;49.60;;;;;;5114101;28;20545;-73
2022/04/26 14:12:48;;;;;;;2.30;2.10;;;19.40;49.50;;;;;;5113140;28;20176;-73
2022/04/26 14:23:29;;;;;;;3.47;1.85;;;19.50;49.40;;;;;;5113932;28;20657;-74
2022/04/26 14:25:54;;;;;;;5.75;2.53;;;19.40;49.40;;;;;;5112950;28;20251;-72
2022/04/26 14:28:20;;;;;;;3.55;1.95;;;19.40;49.50;;;;;;5113799;28;20184;-72
2022/04/26 14:30:45;;;;;;;2.85;2.20;;;19.40;49.30;;;;;;5113795;28;20171;-71
2022/04/26 14:33:11;;;;;;;4.15;2.55;;;19.60;49.20;;;;;;5113141;28;20212;-72
2022/04/26 14:35:36;;;;;;;2.85;2.15;;;19.60;49.10;;;;;;5113487;28;20169;-70
2022/04/26 14:38:02;;;;;;;2.45;1.98;;;19.70;49.00;;;;;;5113592;28;20296;-71
2022/04/26 14:40:27;;;;;;;2.60;1.70;;;19.60;49.00;;;;;;5112932;28;20252;-71
2022/04/26 14:42:54;;;;;;;4.20;2.00;;;19.50;49.20;;;;;;5113051;28;20196;-71
2022/04/26 14:45:20;;;;;;;3.20;2.20;;;19.50;49.30;;;;;;5113625;28;20165;-72
2022/04/26 14:47:46;;;;;;;3.80;2.22;;;19.40;49.50;;;;;;5111098;28;20176;-69
2022/04/26 14:50:11;;;;;;;4.97;2.20;;;19.30;49.50;;;;;;5112470;28;20192;-69
2022/04/26 14:52:37;;;;;;;2.58;2.08;;;19.20;49.60;;;;;;5113208;28;20569;-70
2022/04/26 14:55:08;;;;;;;3.50;2.08;;;19.40;49.40;;;;;;5112258;28;20173;-69
2022/04/26 14:57:33;;;;;;;2.70;1.73;;;19.30;49.40;;;;;;5112631;28;20598;-72
2022/04/26 14:59:59;;;;;;;2.78;2.00;;;19.20;49.50;;;;;;5112208;28;20185;-72
2022/04/26 15:02:26;;;;;;;3.53;1.80;;;19.30;49.40;;;;;;5112744;28;20279;-72
2022/04/26 15:04:52;;;;;;;2.08;1.83;;;19.20;49.30;;;;;;5112489;28;20181;-70
2022/04/26 15:07:17;;;;;;;3.38;2.53;;;19.20;49.50;;;;;;5112279;28;20631;-71
2022/04/26 15:09:43;;;;;;;2.50;1.90;;;19.20;49.40;;;;;;5112601;28;20226;-69
2022/04/26 15:17:38;;;;;;;2.55;1.73;;;19.40;48.90;;;;;;5112493;28;20650;-70
2022/04/26 15:20:04;;;;;;;2.08;1.80;;;19.30;49.00;;;;;;5112831;28;20181;-72
2022/04/26 15:22:30;;;;;;;7.05;2.67;;;19.20;49.10;;;;;;5111253;28;20635;-69
2022/04/26 15:24:56;;;;;;;3.85;2.10;;;19.30;49.40;;;;;;5112496;28;20200;-69
2022/04/26 15:27:21;;;;;;;2.55;2.05;;;19.30;49.20;;;;;;5112798;28;20523;-68
2022/04/26 15:29:47;;;;;;;2.30;2.03;;;19.40;49.20;;;;;;5111659;28;20187;-67
2022/04/26 15:32:12;;;;;;;3.03;2.00;;;19.40;49.20;;;;;;5112564;28;20242;-69
2022/04/26 15:34:38;;;;;;;2.13;1.92;;;19.40;49.10;;;;;;5112284;28;20181;-70
2022/04/26 15:37:04;;;;;;;2.83;1.95;;;19.50;49.00;;;;;;5111766;28;20238;-70
2022/04/26 15:39:30;;;;;;;3.25;2.08;;;19.40;49.20;;;;;;5112599;28;20228;-72
2022/04/26 15:41:56;;;;;;;3.38;2.22;;;19.40;49.10;;;;;;5112298;28;20200;-71
2022/04/26 15:44:22;;;;;;;2.10;1.90;;;19.50;48.90;;;;;;5111868;28;20181;-71
2022/04/26 15:46:50;;;;;;;3.65;2.30;;;19.50;48.70;;;;;;5112134;28;20176;-71
2022/04/26 15:49:18;;;;;;;2.22;1.90;;;19.40;48.90;;;;;;5111565;28;20172;-71
2022/04/26 15:51:44;;;;;;;3.58;2.05;;;19.30;49.00;;;;;;5110622;28;20173;-70
2022/04/26 15:54:09;;;;;;;3.53;2.35;;;19.20;49.10;;;;;;5112151;28;20173;-70
2022/04/26 15:56:35;;;;;;;2.75;2.20;;;19.10;49.20;;;;;;5111061;28;20181;-72
2022/04/26 15:59:03;;;;;;;2.17;1.90;;;19.00;49.20;;;;;;5111961;28;20235;-72
2022/04/26 16:01:28;;;;;;;2.20;2.00;;;19.10;49.30;;;;;;5112027;28;20612;-73
2022/04/26 16:03:54;;;;;;;1.73;1.60;;;19.00;49.30;;;;;;5111104;28;20188;-72
2022/04/26 16:06:19;;;;;;;2.08;1.98;;;19.00;49.20;;;;;;5111996;28;20562;-69
2022/04/26 16:08:46;;;;;;;2.63;2.13;;;19.10;49.30;;;;;;5111674;28;20707;-69
2022/04/26 16:22:07;;;;;;;3.70;2.10;;;19.00;49.60;;;;;;5116066;28;20659;-71
2022/04/26 16:24:38;;;;;;;3.22;2.15;;;18.90;49.60;;;;;;5115622;28;20650;-70
2022/04/26 16:27:13;;;;;;;4.50;2.63;;;18.80;49.70;;;;;;5116082;28;20662;-68
2022/04/26 16:29:40;;;;;;;4.85;2.50;;;18.80;49.80;;;;;;5116039;28;20210;-67
2022/04/26 16:32:05;;;;;;;10.07;2.72;;;18.80;50.00;;;;;;5115234;28;20184;-67
2022/04/26 16:34:31;;;;;;;2.92;2.35;;;18.70;50.00;;;;;;5116029;28;20185;-69
2022/04/26 16:36:56;;;;;;;2.50;2.30;;;18.70;50.10;;;;;;5115690;28;20209;-68
2022/04/26 16:39:22;;;;;;;3.42;2.13;;;18.70;50.30;;;;;;5114938;28;20211;-69
2022/04/26 16:41:47;;;;;;;4.65;2.22;;;18.90;50.40;;;;;;5115374;28;20173;-70
2022/04/26 16:44:13;;;;;;;4.60;2.13;;;18.90;50.20;;;;;;5115764;28;20195;-69
2022/04/26 16:46:38;;;;;;;3.20;1.85;;;19.10;50.20;;;;;;5114588;28;20177;-70
2022/04/26 16:49:05;;;;;;;2.45;2.20;;;19.20;50.00;;;;;;5115608;28;20193;-69
2022/04/26 16:51:32;;;;;;;4.32;2.28;;;19.30;50.00;;;;;;5115581;28;20175;-69
2022/04/26 16:53:58;;;;;;;3.65;2.33;;;19.50;49.60;;;;;;5114836;28;20173;-70
2022/04/26 16:56:24;;;;;;;2.20;2.00;;;19.50;49.20;;;;;;5115534;28;20177;-72
2022/04/26 16:58:49;;;;;;;5.00;2.60;;;19.50;49.10;;;;;;5115089;28;20257;-72
2022/04/26 17:01:15;;;;;;;3.25;2.20;;;19.60;49.10;;;;;;5114949;28;20673;-73
2022/04/26 17:03:40;;;;;;;3.50;2.53;;;19.60;49.00;;;;;;5115058;28;20543;-71
2022/04/26 17:06:06;;;;;;;2.78;2.40;;;19.60;49.00;;;;;;5115575;28;20234;-71
2022/04/26 17:08:31;;;;;;;5.00;2.20;;;19.60;49.00;;;;;;5114620;28;20268;-71
2022/04/26 17:11:42;;;;;;;3.60;2.05;;;19.60;48.90;;;;;;5115033;28;20173;-69
2022/04/26 17:13:42;;;;;;;2.42;2.20;;;19.50;48.70;;;;;;5114079;28;20181;-71
2022/04/26 17:16:08;;;;;;;2.33;1.80;;;19.60;48.70;;;;;;5115030;28;20187;-71